WetterOnline ( http://www.wetteronline.de )

Wetter aktuell Regen

Aktuelles Wetter: Zwiesel (613m)

6-stündlich | Neueste Meldungen
Ortszeit Temperatur Wetter
Sa, 18.08. 8:00 17.4° C wolkenlos
Sa, 18.08. 2:00 14.1° C wolkig
Fr, 17.08. 20:00 25.3° C bedeckt
Fr, 17.08. 14:00 26.7° C wolkenlos
Fr, 17.08. 8:00 13.6° C wolkenlos
Fr, 17.08. 2:00 12.5° C wolkenlos
Do, 16.08. 20:00 22.7° C wolkig
Do, 16.08. 14:00 23.1° C leicht bewölkt
Ortszeit Temperatur Wetter
Sa, 18.08. 8:00 17.4° C wolkenlos
Sa, 18.08. 7:50 17.4° C wolkenlos
Sa, 18.08. 7:40 15.4° C fast wolkenlos
Sa, 18.08. 7:30 14.4° C leicht bewölkt
Sa, 18.08. 7:20 14.4° C leicht bewölkt
Sa, 18.08. 7:10 14.0° C leicht bewölkt
Sa, 18.08. 7:00 13.1° C leicht bewölkt
Sa, 18.08. 6:30 12.6° C wolkig
Sa, 18.08. 6:00 12.1° C bewölkt
Sa, 18.08. 5:30 11.9° C wolkig
Sa, 18.08. 5:00 12.4° C wolkig
Ortszeit Relative Feuchte Sichtweite
Sa, 18.08. 8:00 72% 30 km
Sa, 18.08. 2:00 81% 30 km
Fr, 17.08. 20:00 39% 60 km
Fr, 17.08. 14:00 35% 30 km
Fr, 17.08. 8:00 78% 30 km
Fr, 17.08. 2:00 89% 25 km
Do, 16.08. 20:00 52% 70 km
Do, 16.08. 14:00 46% 55 km
Ortszeit Relative Feuchte Sichtweite
Sa, 18.08. 8:00 72% 30 km
Sa, 18.08. 7:50 72% -
Sa, 18.08. 7:40 74% -
Sa, 18.08. 7:30 78% 28 km
Sa, 18.08. 7:20 78% -
Sa, 18.08. 7:10 81% -
Sa, 18.08. 7:00 87% 24 km
Sa, 18.08. 6:30 88% 23 km
Sa, 18.08. 6:00 90% 21 km
Sa, 18.08. 5:30 90% 18 km
Sa, 18.08. 5:00 88% 26 km
Ortszeit Niederschlagsmenge Niederschlagsart
Sa, 18.08. 8:00 0.0 l/m2 in 12 Std. -
Sa, 18.08. 2:00 0.0 l/m2 in 6 Std. -
Fr, 17.08. 20:00 0.0 l/m2 in 12 Std. -
Fr, 17.08. 14:00 0.0 l/m2 in 6 Std. -
Fr, 17.08. 8:00 0.0 l/m2 in 12 Std. -
Fr, 17.08. 2:00 0.0 l/m2 in 6 Std. -
Do, 16.08. 20:00 0.0 l/m2 in 12 Std. -
Do, 16.08. 14:00 0.0 l/m2 in 6 Std. -
Ortszeit Niederschlagsmenge Niederschlagsart
Sa, 18.08. 8:00 0.0 l/m2 in 1 Std. -
Sa, 18.08. 7:50 keine Meldung -
Sa, 18.08. 7:40 keine Meldung -
Sa, 18.08. 7:30 0.0 l/m2 in 1 Std. -
Sa, 18.08. 7:20 keine Meldung -
Sa, 18.08. 7:10 keine Meldung -
Sa, 18.08. 7:00 0.0 l/m2 in 1 Std. -
Sa, 18.08. 6:30 0.0 l/m2 in 1 Std. -
Sa, 18.08. 6:00 0.0 l/m2 in 1 Std. -
Sa, 18.08. 5:30 0.0 l/m2 in 1 Std. -
Sa, 18.08. 5:00 0.0 l/m2 in 1 Std. -
Ortszeit Stärke Spitze Richtung
km/h Bft. km/h Grad Sektor
Sa, 18.08. 8:00 4 1 14 310° NW
Sa, 18.08. 2:00 4 1 11 70° O
Fr, 17.08. 20:00 4 1 22 200° S
Fr, 17.08. 14:00 9 2 22 210° SW
Fr, 17.08. 8:00 4 1 11 220° SW
Fr, 17.08. 2:00 6 1 9 230° SW
Do, 16.08. 20:00 4 1 29 210° SW
Do, 16.08. 14:00 9 2 19 110° O
Ortszeit Stärke Spitze Richtung
km/h Bft. km/h Grad Sektor
Sa, 18.08. 8:00 4 1 14 310° NW
Sa, 18.08. 7:50 4 1 - 310° NW
Sa, 18.08. 7:40 4 1 - 340° N
Sa, 18.08. 7:30 2 1 13 310° NW
Sa, 18.08. 7:20 2 1 - 310° NW
Sa, 18.08. 7:10 4 1 - 330° NW
Sa, 18.08. 7:00 7 2 11 120° SO
Sa, 18.08. 6:30 4 1 7 230° SW
Sa, 18.08. 6:00 4 1 7 120° SO
Sa, 18.08. 5:30 2 1 4 280° W
Sa, 18.08. 5:00 4 1 7 340° N
Ortszeit Untergrenze Bedeckung Gattung
total tief tief mittel hoch
Sa, 18.08. 8:00 - 0/8 0/8 - - -
Sa, 18.08. 2:00 7800 m 8/8 0/8 - - -
Fr, 17.08. 20:00 1800 m 8/8 8/8 - - -
Fr, 17.08. 14:00 - 0/8 0/8 - - -
Fr, 17.08. 8:00 - 0/8 0/8 - - -
Fr, 17.08. 2:00 - 0/8 0/8 - - -
Do, 16.08. 20:00 1800 m 7/8 7/8 - - -
Do, 16.08. 14:00 1800 m 2/8 2/8 - - -
Ortszeit Bedeckungsgrad in Achtel und Wolkenuntergrenze
Sa, 18.08. 8:00 keine Wolken
Sa, 18.08. 7:50 keine Wolken
Sa, 18.08. 7:40 2(10500m)
Sa, 18.08. 7:30 5(10500m)
Sa, 18.08. 7:20 5(10500m)
Sa, 18.08. 7:10 1(9000m) 4(10500m)
Sa, 18.08. 7:00 2(4500m) 4(9000m)
Sa, 18.08. 6:30 5(4500m)
Sa, 18.08. 6:00 7(4500m) 7(9000m)
Sa, 18.08. 5:30 3(4800m) 5(6600m) 5(9000m)
Sa, 18.08. 5:00 3(5700m) 6(6900m) 6(9000m)
Ortszeit Luftdruck NN (hPa) Tendenz (hPa in 3 Std.)
Sa, 18.08. 8:00 1019 + 1,1
Sa, 18.08. 2:00 1018 + 0,8
Fr, 17.08. 20:00 1013 + 0,3
Fr, 17.08. 14:00 1013 - 0,5
Fr, 17.08. 8:00 1017 + 0,1
Fr, 17.08. 2:00 1017 - 0,1
Do, 16.08. 20:00 1014 - 0,4
Do, 16.08. 14:00 1016 - 1,2
Ortszeit Luftdruck NN (hPa) Tendenz (hPa in 3 Std.)
Sa, 18.08. 8:00 1019 + 1,1
Sa, 18.08. 7:50 1019 keine Meldung
Sa, 18.08. 7:40 1020 keine Meldung
Sa, 18.08. 7:30 1020 + 1,0
Sa, 18.08. 7:20 1020 keine Meldung
Sa, 18.08. 7:10 1020 keine Meldung
Sa, 18.08. 7:00 1020 + 0,8
Sa, 18.08. 6:30 1020 + 0,7
Sa, 18.08. 6:00 1020 + 0,6
Sa, 18.08. 5:30 1020 + 0,4
Sa, 18.08. 5:00 1019 + 0,4
Ortszeit Schneehöhe (cm)
Sa, 18.08. 8:00 -
Sa, 18.08. 2:00 -
Fr, 17.08. 20:00 -
Fr, 17.08. 14:00 -
Fr, 17.08. 8:00 -
Fr, 17.08. 2:00 -
Do, 16.08. 20:00 -
Do, 16.08. 14:00 -
Ortszeit Schneehöhe (cm)
Sa, 18.08. 8:00 -
Sa, 18.08. 7:50 -
Sa, 18.08. 7:40 -
Sa, 18.08. 7:30 -
Sa, 18.08. 7:20 -
Sa, 18.08. 7:10 -
Sa, 18.08. 7:00 -
Sa, 18.08. 6:30 -
Sa, 18.08. 6:00 -
Sa, 18.08. 5:30 -
Sa, 18.08. 5:00 -
Link zu dieser Seite / Seite empfehlen

Das Wetter in ...